createdAt,value
2023-03-02T00:04:46.640Z,39.47
2023-03-02T00:10:48.965Z,33.70
2023-03-02T00:16:54.260Z,40.50
2023-03-02T00:23:00.887Z,39.40
2023-03-02T00:29:04.368Z,51.77
2023-03-02T00:35:11.825Z,50.93
2023-03-02T00:41:15.304Z,37.83
2023-03-02T00:47:20.114Z,42.50
2023-03-02T00:53:22.259Z,45.37
2023-03-02T00:59:27.707Z,67.97
2023-03-02T01:05:33.160Z,83.33
2023-03-02T01:11:35.648Z,71.97
2023-03-02T01:17:45.160Z,54.03
2023-03-02T01:23:47.574Z,48.47
2023-03-02T01:29:52.098Z,48.80
2023-03-02T01:35:58.423Z,69.47
2023-03-02T01:42:03.554Z,65.13
2023-03-02T01:48:05.549Z,56.40
2023-03-02T01:54:23.211Z,41.47
2023-03-02T02:00:32.773Z,45.53
2023-03-02T02:06:45.059Z,44.80
2023-03-02T02:12:49.352Z,51.83
2023-03-02T02:18:56.009Z,44.47
2023-03-02T02:25:05.490Z,34.50
2023-03-02T02:31:58.268Z,45.03
2023-03-02T02:38:06.608Z,36.10
2023-03-02T02:44:17.092Z,41.03
2023-03-02T02:50:24.590Z,44.83
2023-03-02T02:56:42.081Z,40.50
2023-03-02T03:02:49.586Z,28.77
2023-03-02T03:09:05.086Z,23.83
2023-03-02T03:15:12.532Z,32.87
2023-03-02T03:21:15.019Z,28.50
2023-03-02T03:27:17.474Z,35.97
2023-03-02T03:33:19.958Z,45.87
2023-03-02T03:39:22.446Z,37.97
2023-03-02T03:45:24.932Z,46.77
2023-03-02T03:51:28.398Z,31.87
2023-03-02T03:57:38.342Z,51.40
2023-03-02T04:03:41.309Z,30.73
2023-03-02T04:09:49.004Z,24.17
2023-03-02T04:15:56.988Z,31.13
2023-03-02T04:22:02.768Z,29.70
2023-03-02T04:28:14.288Z,33.10
2023-03-02T04:34:28.264Z,30.57
2023-03-02T04:40:34.241Z,35.97
2023-03-02T04:46:36.822Z,32.00
2023-03-02T04:52:40.156Z,40.27
2023-03-02T04:58:51.891Z,34.27
2023-03-02T05:04:57.327Z,40.37
2023-03-02T05:11:14.360Z,52.47
2023-03-02T05:17:18.151Z,61.47
2023-03-02T05:23:36.427Z,68.50
2023-03-02T05:29:39.185Z,56.63
2023-03-02T05:35:51.711Z,48.50
2023-03-02T05:41:54.119Z,57.50
2023-03-02T05:48:06.680Z,66.13
2023-03-02T05:54:15.753Z,61.57
2023-03-02T06:00:19.606Z,39.23
2023-03-02T06:06:34.383Z,61.53
2023-03-02T06:12:41.814Z,43.70
2023-03-02T06:18:48.046Z,47.37
2023-03-02T06:25:02.008Z,43.60
2023-03-02T06:31:05.055Z,49.40
2023-03-02T06:37:16.584Z,50.10
2023-03-02T06:43:20.884Z,36.77
2023-03-02T06:49:23.542Z,43.70
2023-03-02T06:55:29.003Z,35.63
2023-03-02T07:01:36.717Z,27.50
2023-03-02T07:07:39.998Z,38.43
2023-03-02T07:13:48.230Z,32.87
2023-03-02T07:19:56.488Z,38.57
2023-03-02T07:26:04.926Z,35.63
2023-03-02T07:32:12.446Z,32.57
2023-03-02T07:38:15.375Z,34.97
2023-03-02T07:44:17.819Z,43.10
2023-03-02T07:50:22.657Z,37.80
2023-03-02T07:56:25.756Z,48.63
2023-03-02T08:02:32.243Z,47.47
2023-03-02T08:08:37.705Z,44.33
2023-03-02T08:14:43.352Z,39.67
2023-03-02T08:20:45.642Z,38.60
2023-03-02T08:26:48.100Z,34.00
2023-03-02T08:32:50.656Z,35.17
2023-03-02T08:38:53.043Z,31.37
2023-03-02T08:44:55.542Z,36.13
2023-03-02T08:51:15.012Z,34.37
2023-03-02T08:57:18.258Z,37.53
2023-03-02T09:03:21.970Z,36.90
2023-03-02T09:09:24.421Z,31.73
2023-03-02T09:15:26.278Z,33.87
2023-03-02T09:21:29.497Z,43.20
2023-03-02T09:27:31.820Z,33.80
2023-03-02T09:33:36.288Z,41.63
2023-03-02T09:39:39.841Z,37.13
2023-03-02T09:46:13.120Z,33.00
2023-03-02T09:52:30.921Z,37.33
2023-03-02T09:58:38.351Z,36.63
2023-03-02T10:04:50.918Z,26.30
2023-03-02T10:11:13.161Z,26.97
2023-03-02T10:17:34.953Z,25.23
2023-03-02T10:23:47.440Z,22.20
2023-03-02T10:30:06.987Z,24.47
2023-03-02T10:36:40.554Z,29.20
2023-03-02T10:42:42.973Z,20.47
2023-03-02T10:48:58.494Z,11.37
2023-03-02T10:55:14.092Z,18.37
2023-03-02T11:01:20.467Z,12.13
2023-03-02T11:07:24.939Z,17.43
2023-03-02T11:13:31.439Z,13.50
2023-03-02T11:19:39.917Z,19.37
2023-03-02T11:25:49.404Z,10.50
2023-03-02T11:32:39.111Z,10.30
2023-03-02T11:40:08.046Z,12.43
2023-03-02T11:45:47.322Z,9.87
2023-03-02T11:52:02.860Z,15.13
2023-03-02T11:58:47.742Z,15.47
2023-03-02T12:04:49.842Z,16.00
2023-03-02T12:11:03.510Z,21.53
2023-03-02T12:17:28.914Z,10.77
2023-03-02T12:23:33.425Z,15.00
2023-03-02T12:29:45.861Z,14.93
2023-03-02T12:36:00.386Z,13.57
2023-03-02T12:42:34.051Z,13.03
2023-03-02T12:48:57.600Z,11.10
2023-03-02T12:55:21.078Z,9.60
2023-03-02T13:01:41.772Z,16.73
2023-03-02T13:08:32.350Z,14.77
2023-03-02T13:14:35.715Z,13.50
2023-03-02T13:20:39.203Z,34.67
2023-03-02T13:26:41.066Z,12.17
2023-03-02T13:32:45.469Z,20.10
2023-03-02T13:38:59.017Z,10.77
2023-03-02T13:45:29.209Z,16.77
2023-03-02T13:51:40.662Z,11.70
2023-03-02T13:57:48.158Z,14.47
2023-03-02T14:03:50.641Z,11.90
2023-03-02T14:09:56.518Z,9.63
2023-03-02T14:15:59.584Z,10.20
2023-03-02T14:22:02.971Z,10.67
2023-03-02T14:28:07.441Z,38.53
2023-03-02T14:34:16.938Z,13.50
2023-03-02T14:40:29.588Z,11.07
2023-03-02T14:46:36.096Z,11.60
2023-03-02T14:53:11.321Z,24.00
2023-03-02T14:59:24.032Z,20.43
2023-03-02T15:05:29.548Z,20.97
2023-03-02T15:11:32.684Z,19.03
2023-03-02T15:17:38.519Z,15.37
2023-03-02T15:23:40.954Z,18.57
2023-03-02T15:29:48.451Z,25.03
2023-03-02T15:35:55.644Z,47.47
2023-03-02T15:41:58.381Z,34.57
2023-03-02T15:48:00.826Z,20.90
2023-03-02T15:54:15.608Z,29.40
2023-03-02T16:00:30.629Z,45.63
2023-03-02T16:06:34.983Z,41.47
2023-03-02T16:12:37.771Z,44.80
2023-03-02T16:18:40.234Z,97.57
2023-03-02T16:24:51.011Z,81.57
2023-03-02T16:31:06.876Z,84.50
2023-03-02T16:37:09.782Z,86.00
2023-03-02T16:43:13.137Z,54.53
2023-03-02T16:49:20.628Z,47.10
2023-03-02T16:55:27.342Z,43.57
2023-03-02T17:01:30.565Z,41.67
2023-03-02T17:07:40.275Z,42.17
2023-03-02T17:13:42.471Z,149.77
2023-03-02T17:19:46.944Z,124.57
2023-03-02T17:25:50.678Z,175.63
2023-03-02T17:31:53.951Z,114.13
2023-03-02T17:38:04.363Z,124.63
2023-03-02T17:44:19.763Z,120.13
2023-03-02T17:57:00.648Z,86.73
2023-03-02T18:03:33.161Z,77.63
2023-03-02T18:09:44.935Z,61.03
2023-03-02T18:16:12.871Z,52.63
2023-03-02T18:22:30.826Z,77.93
2023-03-02T18:28:35.904Z,112.10
2023-03-02T18:34:42.895Z,91.07
2023-03-02T18:40:52.156Z,76.77
2023-03-02T18:47:05.911Z,95.17
2023-03-02T18:54:00.771Z,99.87
2023-03-02T19:00:31.645Z,155.83
2023-03-02T19:06:50.225Z,156.93
2023-03-02T19:13:10.229Z,153.50
2023-03-02T19:25:44.124Z,144.23
2023-03-02T19:31:54.165Z,123.03
2023-03-02T19:38:14.220Z,175.80
2023-03-02T19:44:32.269Z,114.20
2023-03-02T19:50:44.309Z,85.10
2023-03-02T19:57:01.531Z,508.07
2023-03-02T20:03:29.324Z,344.20
2023-03-02T20:16:02.870Z,149.97
2023-03-02T20:22:21.796Z,117.17
2023-03-02T20:28:53.277Z,126.67
2023-03-02T20:35:02.683Z,179.23
2023-03-02T20:41:33.031Z,174.63
2023-03-02T20:48:01.161Z,144.43
2023-03-02T20:54:12.777Z,116.33
2023-03-02T21:00:22.015Z,116.83
2023-03-02T21:06:30.240Z,166.20
2023-03-02T21:12:35.448Z,159.50
2023-03-02T21:19:03.193Z,124.03
2023-03-02T21:25:13.977Z,101.57
2023-03-02T21:32:03.387Z,103.73
2023-03-02T21:38:07.713Z,116.10
2023-03-02T21:50:51.965Z,140.57
2023-03-02T21:57:04.315Z,111.93
2023-03-02T22:03:31.509Z,276.57
2023-03-02T22:09:43.549Z,72.20
2023-03-02T22:16:21.110Z,64.83
2023-03-02T22:22:40.911Z,72.30
2023-03-02T22:35:43.881Z,70.43
2023-03-02T22:48:23.037Z,79.07
2023-03-02T22:54:45.785Z,76.37
2023-03-02T23:01:11.605Z,53.13
2023-03-02T23:13:52.489Z,81.93
2023-03-02T23:19:54.465Z,71.67
2023-03-02T23:26:13.158Z,128.33
2023-03-02T23:32:43.752Z,87.57
2023-03-02T23:38:53.034Z,108.90
2023-03-02T23:45:02.335Z,120.03
2023-03-02T23:51:35.597Z,102.13
2023-03-02T23:57:33.708Z,110.90
